sensor_id;sensor_type;location;lat;lon;timestamp;pressure;altitude;pressure_sealevel;temperature;humidity
23473;BME280;11909;52.516;13.564;2022-10-03T00:02:37;101093.81;;;10.68;94.92
23473;BME280;11909;52.516;13.564;2022-10-03T00:05:23;101103.44;;;10.70;94.96
23473;BME280;11909;52.516;13.564;2022-10-03T00:08:02;101105.38;;;10.75;94.85
23473;BME280;11909;52.516;13.564;2022-10-03T00:10:37;101110.03;;;10.69;95.07
23473;BME280;11909;52.516;13.564;2022-10-03T00:13:20;101114.13;;;10.72;95.10
23473;BME280;11909;52.516;13.564;2022-10-03T00:16:04;101115.81;;;10.73;95.52
23473;BME280;11909;52.516;13.564;2022-10-03T00:18:39;101118.81;;;10.76;95.32
23473;BME280;11909;52.516;13.564;2022-10-03T00:21:20;101116.06;;;10.71;95.78
23473;BME280;11909;52.516;13.564;2022-10-03T00:23:58;101120.47;;;10.72;95.87
23473;BME280;11909;52.516;13.564;2022-10-03T00:26:36;101121.00;;;10.80;95.25
23473;BME280;11909;52.516;13.564;2022-10-03T00:29:21;101118.81;;;10.71;95.71
23473;BME280;11909;52.516;13.564;2022-10-03T00:31:59;101121.56;;;10.76;95.91
23473;BME280;11909;52.516;13.564;2022-10-03T00:34:40;101123.22;;;10.78;95.86
23473;BME280;11909;52.516;13.564;2022-10-03T00:37:21;101121.28;;;10.83;95.82
23473;BME280;11909;52.516;13.564;2022-10-03T00:39:59;101130.09;;;10.90;95.39
23473;BME280;11909;52.516;13.564;2022-10-03T00:46:16;101127.34;;;10.80;95.67
23473;BME280;11909;52.516;13.564;2022-10-03T00:49:22;101138.31;;;10.80;95.86
23473;BME280;11909;52.516;13.564;2022-10-03T00:52:12;101127.88;;;10.77;95.93
23473;BME280;11909;52.516;13.564;2022-10-03T00:54:57;101132.00;;;10.74;96.07
23473;BME280;11909;52.516;13.564;2022-10-03T00:57:44;101136.66;;;10.74;95.90
23473;BME280;11909;52.516;13.564;2022-10-03T01:00:18;101134.72;;;10.69;96.08
23473;BME280;11909;52.516;13.564;2022-10-03T01:02:57;101123.75;;;10.64;96.63
23473;BME280;11909;52.516;13.564;2022-10-03T01:05:38;101133.63;;;10.70;96.09
23473;BME280;11909;52.516;13.564;2022-10-03T01:08:36;101132.53;;;10.71;96.15
23473;BME280;11909;52.516;13.564;2022-10-03T01:11:15;101131.16;;;10.64;96.48
23473;BME280;11909;52.516;13.564;2022-10-03T01:13:56;101138.28;;;10.59;96.74
23473;BME280;11909;52.516;13.564;2022-10-03T01:16:32;101142.41;;;10.62;96.54
23473;BME280;11909;52.516;13.564;2022-10-03T01:19:20;101131.13;;;10.58;96.83
23473;BME280;11909;52.516;13.564;2022-10-03T01:22:05;101144.56;;;10.60;96.98
23473;BME280;11909;52.516;13.564;2022-10-03T01:24:52;101146.81;;;10.63;97.15
23473;BME280;11909;52.516;13.564;2022-10-03T01:27:27;101150.66;;;10.72;96.84
23473;BME280;11909;52.516;13.564;2022-10-03T01:30:02;101151.19;;;10.74;96.59
23473;BME280;11909;52.516;13.564;2022-10-03T01:32:51;101154.25;;;10.78;96.30
23473;BME280;11909;52.516;13.564;2022-10-03T01:35:30;101167.69;;;10.80;96.55
23473;BME280;11909;52.516;13.564;2022-10-03T01:38:08;101164.38;;;10.83;96.18
23473;BME280;11909;52.516;13.564;2022-10-03T01:40:46;101165.47;;;10.82;96.31
23473;BME280;11909;52.516;13.564;2022-10-03T01:43:18;101166.88;;;10.84;96.04
23473;BME280;11909;52.516;13.564;2022-10-03T01:45:54;101164.69;;;10.81;96.10
23473;BME280;11909;52.516;13.564;2022-10-03T01:48:31;101166.03;;;10.79;95.97
23473;BME280;11909;52.516;13.564;2022-10-03T01:51:06;101159.72;;;10.83;95.70
23473;BME280;11909;52.516;13.564;2022-10-03T01:53:45;101160.00;;;10.82;95.73
23473;BME280;11909;52.516;13.564;2022-10-03T01:56:17;101171.84;;;10.98;94.39
23473;BME280;11909;52.516;13.564;2022-10-03T01:58:56;101175.13;;;10.95;94.59
23473;BME280;11909;52.516;13.564;2022-10-03T02:01:33;101164.97;;;10.90;95.29
23473;BME280;11909;52.516;13.564;2022-10-03T02:04:05;101169.63;;;10.89;94.45
23473;BME280;11909;52.516;13.564;2022-10-03T02:06:44;101176.75;;;10.90;94.92
23473;BME280;11909;52.516;13.564;2022-10-03T02:09:23;101173.75;;;10.92;95.01
23473;BME280;11909;52.516;13.564;2022-10-03T02:12:01;101184.19;;;10.95;94.79
23473;BME280;11909;52.516;13.564;2022-10-03T02:14:34;101181.19;;;11.02;94.70
23473;BME280;11909;52.516;13.564;2022-10-03T02:17:12;101186.94;;;11.00;94.15
23473;BME280;11909;52.516;13.564;2022-10-03T02:19:49;101185.03;;;10.96;94.29
23473;BME280;11909;52.516;13.564;2022-10-03T02:22:30;101182.53;;;10.99;94.75
23473;BME280;11909;52.516;13.564;2022-10-03T02:25:07;101181.16;;;10.92;94.56
23473;BME280;11909;52.516;13.564;2022-10-03T02:28:13;101178.97;;;10.88;94.69
23473;BME280;11909;52.516;13.564;2022-10-03T02:30:55;101183.63;;;10.88;95.43
23473;BME280;11909;52.516;13.564;2022-10-03T02:33:52;101182.00;;;10.87;95.34
23473;BME280;11909;52.516;13.564;2022-10-03T02:39:46;101188.28;;;10.87;94.76
23473;BME280;11909;52.516;13.564;2022-10-03T02:42:35;101188.84;;;10.89;95.00
23473;BME280;11909;52.516;13.564;2022-10-03T02:45:29;101194.88;;;10.92;94.69
23473;BME280;11909;52.516;13.564;2022-10-03T02:51:39;101192.44;;;10.90;94.53
23473;BME280;11909;52.516;13.564;2022-10-03T02:54:35;101195.69;;;10.82;94.86
23473;BME280;11909;52.516;13.564;2022-10-03T02:57:34;101200.09;;;10.83;94.83
23473;BME280;11909;52.516;13.564;2022-10-03T03:00:09;101209.72;;;10.90;94.37
23473;BME280;11909;52.516;13.564;2022-10-03T03:08:27;101208.91;;;10.90;94.32
23473;BME280;11909;52.516;13.564;2022-10-03T03:11:15;101213.59;;;11.00;93.03
23473;BME280;11909;52.516;13.564;2022-10-03T03:14:16;101213.00;;;10.93;93.55
23473;BME280;11909;52.516;13.564;2022-10-03T03:17:05;101216.03;;;10.91;93.90
23473;BME280;11909;52.516;13.564;2022-10-03T03:19:47;101223.47;;;11.01;93.06
23473;BME280;11909;52.516;13.564;2022-10-03T03:22:31;101219.09;;;11.00;93.21
23473;BME280;11909;52.516;13.564;2022-10-03T03:25:28;101223.47;;;11.06;93.16
23473;BME280;11909;52.516;13.564;2022-10-03T03:28:10;101218.53;;;11.03;92.75
23473;BME280;11909;52.516;13.564;2022-10-03T03:30:48;101231.16;;;11.04;92.68
23473;BME280;11909;52.516;13.564;2022-10-03T03:33:25;101231.44;;;10.97;92.96
23473;BME280;11909;52.516;13.564;2022-10-03T03:36:03;101233.06;;;10.93;92.85
23473;BME280;11909;52.516;13.564;2022-10-03T03:38:36;101230.34;;;11.03;92.87
23473;BME280;11909;52.516;13.564;2022-10-03T03:41:24;101225.94;;;11.02;92.51
23473;BME280;11909;52.516;13.564;2022-10-03T03:44:19;101220.44;;;10.97;92.55
23473;BME280;11909;52.516;13.564;2022-10-03T03:47:05;101226.22;;;10.96;92.42
23473;BME280;11909;52.516;13.564;2022-10-03T03:49:45;101217.16;;;11.00;92.54
23473;BME280;11909;52.516;13.564;2022-10-03T03:52:28;101239.13;;;11.00;92.58
23473;BME280;11909;52.516;13.564;2022-10-03T03:55:08;101236.94;;;11.02;92.62
23473;BME280;11909;52.516;13.564;2022-10-03T03:58:01;101237.75;;;10.98;92.89
23473;BME280;11909;52.516;13.564;2022-10-03T04:00:39;101238.59;;;11.09;91.65
23473;BME280;11909;52.516;13.564;2022-10-03T04:03:24;101235.81;;;11.03;92.13
23473;BME280;11909;52.516;13.564;2022-10-03T04:06:08;101243.53;;;11.07;91.68
23473;BME280;11909;52.516;13.564;2022-10-03T04:09:04;101242.44;;;11.08;91.62
23473;BME280;11909;52.516;13.564;2022-10-03T04:11:44;101246.25;;;11.01;92.08
23473;BME280;11909;52.516;13.564;2022-10-03T04:14:44;101245.72;;;11.04;92.02
23473;BME280;11909;52.516;13.564;2022-10-03T04:17:29;101247.34;;;11.00;92.26
23473;BME280;11909;52.516;13.564;2022-10-03T04:20:31;101258.09;;;11.07;91.89
23473;BME280;11909;52.516;13.564;2022-10-03T04:23:12;101263.56;;;10.97;92.19
23473;BME280;11909;52.516;13.564;2022-10-03T04:25:55;101250.09;;;10.95;91.89
23473;BME280;11909;52.516;13.564;2022-10-03T04:28:52;101257.50;;;10.95;92.40
23473;BME280;11909;52.516;13.564;2022-10-03T04:31:42;101260.81;;;10.97;91.92
23473;BME280;11909;52.516;13.564;2022-10-03T04:34:21;101259.19;;;10.96;92.04
23473;BME280;11909;52.516;13.564;2022-10-03T04:37:02;101253.94;;;10.89;92.69
23473;BME280;11909;52.516;13.564;2022-10-03T04:39:36;101245.97;;;10.93;92.81
23473;BME280;11909;52.516;13.564;2022-10-03T04:42:11;101249.56;;;10.93;92.85
23473;BME280;11909;52.516;13.564;2022-10-03T04:44:54;101257.25;;;10.96;93.00
23473;BME280;11909;52.516;13.564;2022-10-03T04:47:30;101265.22;;;10.98;92.90
23473;BME280;11909;52.516;13.564;2022-10-03T04:50:02;101261.63;;;10.92;92.97
23473;BME280;11909;52.516;13.564;2022-10-03T04:52:39;101258.03;;;10.86;93.25
23473;BME280;11909;52.516;13.564;2022-10-03T04:55:18;101266.28;;;10.92;93.24
23473;BME280;11909;52.516;13.564;2022-10-03T04:57:51;101269.88;;;10.92;93.46
23473;BME280;11909;52.516;13.564;2022-10-03T05:00:23;101267.13;;;10.97;92.30
23473;BME280;11909;52.516;13.564;2022-10-03T05:03:00;101261.94;;;10.96;92.38
23473;BME280;11909;52.516;13.564;2022-10-03T05:05:40;101275.06;;;10.94;92.53
23473;BME280;11909;52.516;13.564;2022-10-03T05:08:18;101265.75;;;10.95;92.55
23473;BME280;11909;52.516;13.564;2022-10-03T05:11:01;101274.00;;;11.00;92.35
23473;BME280;11909;52.516;13.564;2022-10-03T05:13:38;101280.31;;;11.00;91.97
23473;BME280;11909;52.516;13.564;2022-10-03T05:16:17;101273.72;;;10.91;92.21
23473;BME280;11909;52.516;13.564;2022-10-03T05:18:51;101272.91;;;10.96;92.38
23473;BME280;11909;52.516;13.564;2022-10-03T05:21:27;101267.38;;;10.90;92.92
23473;BME280;11909;52.516;13.564;2022-10-03T05:24:01;101271.53;;;10.98;92.79
23473;BME280;11909;52.516;13.564;2022-10-03T05:26:41;101271.53;;;10.98;92.81
23473;BME280;11909;52.516;13.564;2022-10-03T05:29:14;101271.22;;;10.95;92.59
23473;BME280;11909;52.516;13.564;2022-10-03T05:31:48;101277.56;;;10.90;93.03
23473;BME280;11909;52.516;13.564;2022-10-03T05:34:31;101291.84;;;10.97;93.22
23473;BME280;11909;52.516;13.564;2022-10-03T05:37:12;101292.94;;;11.01;92.46
23473;BME280;11909;52.516;13.564;2022-10-03T05:39:50;101291.84;;;10.92;92.53
23473;BME280;11909;52.516;13.564;2022-10-03T05:42:35;101288.84;;;10.99;92.25
23473;BME280;11909;52.516;13.564;2022-10-03T05:45:13;101296.78;;;10.95;92.51
23473;BME280;11909;52.516;13.564;2022-10-03T05:47:49;101299.81;;;10.99;92.01
23473;BME280;11909;52.516;13.564;2022-10-03T05:50:34;101302.53;;;10.94;92.62
23473;BME280;11909;52.516;13.564;2022-10-03T05:53:42;101308.03;;;10.94;92.56
23473;BME280;11909;52.516;13.564;2022-10-03T05:56:18;101299.81;;;10.99;92.30
23473;BME280;11909;52.516;13.564;2022-10-03T05:59:19;101316.25;;;10.94;92.58
23473;BME280;11909;52.516;13.564;2022-10-03T06:02:03;101317.66;;;10.96;92.51
23473;BME280;11909;52.516;13.564;2022-10-03T06:04:59;101309.97;;;10.98;91.44
23473;BME280;11909;52.516;13.564;2022-10-03T06:07:39;101315.47;;;10.93;92.01
23473;BME280;11909;52.516;13.564;2022-10-03T06:10:24;101311.34;;;10.96;91.92
23473;BME280;11909;52.516;13.564;2022-10-03T06:13:09;101327.84;;;10.96;91.83
23473;BME280;11909;52.516;13.564;2022-10-03T06:15:48;101325.09;;;10.96;91.61
23473;BME280;11909;52.516;13.564;2022-10-03T06:18:48;101345.97;;;11.02;90.60
23473;BME280;11909;52.516;13.564;2022-10-03T06:22:08;101347.63;;;10.98;91.05
23473;BME280;11909;52.516;13.564;2022-10-03T06:31:33;101358.88;;;11.01;91.58
23473;BME280;11909;52.516;13.564;2022-10-03T06:34:34;101364.09;;;11.03;90.82
23473;BME280;11909;52.516;13.564;2022-10-03T06:37:34;101371.81;;;11.11;90.44
23473;BME280;11909;52.516;13.564;2022-10-03T06:40:30;101373.75;;;11.11;90.48
23473;BME280;11909;52.516;13.564;2022-10-03T06:43:44;101368.81;;;11.13;91.04
23473;BME280;11909;52.516;13.564;2022-10-03T06:46:38;101371.00;;;11.11;90.60
23473;BME280;11909;52.516;13.564;2022-10-03T06:49:53;101362.47;;;11.12;90.38
23473;BME280;11909;52.516;13.564;2022-10-03T06:52:56;101372.94;;;11.15;89.90
23473;BME280;11909;52.516;13.564;2022-10-03T06:55:45;101379.84;;;11.23;89.32
23473;BME280;11909;52.516;13.564;2022-10-03T06:58:46;101384.50;;;11.23;88.67
23473;BME280;11909;52.516;13.564;2022-10-03T07:07:33;101379.56;;;11.25;89.41
23473;BME280;11909;52.516;13.564;2022-10-03T07:10:20;101384.53;;;11.28;89.20
23473;BME280;11909;52.516;13.564;2022-10-03T07:13:14;101395.81;;;11.37;88.11
23473;BME280;11909;52.516;13.564;2022-10-03T07:16:15;101387.34;;;11.43;87.74
23473;BME280;11909;52.516;13.564;2022-10-03T07:19:14;101398.59;;;11.42;87.67
23473;BME280;11909;52.516;13.564;2022-10-03T07:22:21;101397.22;;;11.44;87.61
23473;BME280;11909;52.516;13.564;2022-10-03T07:25:21;101412.06;;;11.43;87.00
23473;BME280;11909;52.516;13.564;2022-10-03T07:28:20;101416.19;;;11.51;87.40
23473;BME280;11909;52.516;13.564;2022-10-03T07:31:00;101403.28;;;11.46;87.92
23473;BME280;11909;52.516;13.564;2022-10-03T07:34:07;101407.97;;;11.56;86.75
23473;BME280;11909;52.516;13.564;2022-10-03T07:36:59;101412.94;;;11.54;87.38
23473;BME280;11909;52.516;13.564;2022-10-03T07:40:15;101415.97;;;11.68;86.48
23473;BME280;11909;52.516;13.564;2022-10-03T07:43:00;101423.69;;;11.66;85.67
23473;BME280;11909;52.516;13.564;2022-10-03T07:45:40;101425.84;;;11.64;86.25
23473;BME280;11909;52.516;13.564;2022-10-03T07:48:43;101431.94;;;11.71;85.62
23473;BME280;11909;52.516;13.564;2022-10-03T07:51:21;101431.34;;;11.64;86.29
23473;BME280;11909;52.516;13.564;2022-10-03T07:54:22;101431.94;;;11.66;87.06
23473;BME280;11909;52.516;13.564;2022-10-03T07:57:03;101435.78;;;11.70;85.78
23473;BME280;11909;52.516;13.564;2022-10-03T08:00:07;101444.84;;;11.66;86.32
23473;BME280;11909;52.516;13.564;2022-10-03T08:05:45;101454.19;;;11.70;85.13
23473;BME280;11909;52.516;13.564;2022-10-03T08:08:43;101453.09;;;11.66;86.01
23473;BME280;11909;52.516;13.564;2022-10-03T08:11:34;101457.47;;;11.67;85.80
23473;BME280;11909;52.516;13.564;2022-10-03T08:14:16;101458.31;;;11.67;85.31
23473;BME280;11909;52.516;13.564;2022-10-03T08:17:14;101459.69;;;11.70;85.60
23473;BME280;11909;52.516;13.564;2022-10-03T08:20:21;101463.28;;;11.70;85.81
23473;BME280;11909;52.516;13.564;2022-10-03T08:23:06;101471.25;;;11.72;85.33
23473;BME280;11909;52.516;13.564;2022-10-03T08:25:53;101477.03;;;11.75;85.15
23473;BME280;11909;52.516;13.564;2022-10-03T08:28:40;101473.19;;;11.76;85.69
23473;BME280;11909;52.516;13.564;2022-10-03T08:41:12;101484.03;;;12.04;83.54
23473;BME280;11909;52.516;13.564;2022-10-03T08:44:04;101493.94;;;12.21;82.27
23473;BME280;11909;52.516;13.564;2022-10-03T08:47:03;101484.31;;;12.18;82.90
23473;BME280;11909;52.516;13.564;2022-10-03T08:52:39;101488.44;;;12.21;82.17
23473;BME280;11909;52.516;13.564;2022-10-03T08:55:27;101489.53;;;12.14;82.43
23473;BME280;11909;52.516;13.564;2022-10-03T08:58:19;101492.31;;;12.25;81.69
23473;BME280;11909;52.516;13.564;2022-10-03T09:01:17;101488.72;;;12.19;81.95
23473;BME280;11909;52.516;13.564;2022-10-03T09:04:51;101494.47;;;12.17;82.68
23473;BME280;11909;52.516;13.564;2022-10-03T09:07:49;101484.59;;;12.32;82.33
23473;BME280;11909;52.516;13.564;2022-10-03T09:10:35;101495.03;;;12.45;81.91
23473;BME280;11909;52.516;13.564;2022-10-03T09:13:24;101500.03;;;12.69;81.10
23473;BME280;11909;52.516;13.564;2022-10-03T09:19:08;101506.31;;;13.01;79.70
23473;BME280;11909;52.516;13.564;2022-10-03T09:25:03;101505.47;;;13.11;77.73
23473;BME280;11909;52.516;13.564;2022-10-03T09:30:37;101506.84;;;13.03;77.64
23473;BME280;11909;52.516;13.564;2022-10-03T09:36:47;101508.53;;;13.04;76.18
23473;BME280;11909;52.516;13.564;2022-10-03T09:39:55;101512.56;;;13.32;75.72
23473;BME280;11909;52.516;13.564;2022-10-03T09:43:00;101520.50;;;13.60;74.13
23473;BME280;11909;52.516;13.564;2022-10-03T09:45:46;101512.22;;;13.65;72.99
23473;BME280;11909;52.516;13.564;2022-10-03T09:48:28;101511.84;;;13.82;73.80
23473;BME280;11909;52.516;13.564;2022-10-03T09:51:17;101515.94;;;13.90;74.39
23473;BME280;11909;52.516;13.564;2022-10-03T09:57:01;101520.38;;;13.91;73.02
23473;BME280;11909;52.516;13.564;2022-10-03T10:05:52;101527.09;;;13.69;73.59
23473;BME280;11909;52.516;13.564;2022-10-03T10:08:47;101531.53;;;13.60;74.34
23473;BME280;11909;52.516;13.564;2022-10-03T10:11:30;101531.81;;;13.64;74.57
23473;BME280;11909;52.516;13.564;2022-10-03T10:14:32;101527.72;;;13.56;74.37
23473;BME280;11909;52.516;13.564;2022-10-03T10:20:19;101520.44;;;13.81;73.80
23473;BME280;11909;52.516;13.564;2022-10-03T10:26:13;101513.06;;;14.11;72.40
23473;BME280;11909;52.516;13.564;2022-10-03T10:29:19;101524.41;;;14.09;72.84
23473;BME280;11909;52.516;13.564;2022-10-03T10:38:29;101526.47;;;14.33;71.61
23473;BME280;11909;52.516;13.564;2022-10-03T10:41:36;101524.03;;;14.26;70.96
23473;BME280;11909;52.516;13.564;2022-10-03T10:44:43;101508.31;;;14.22;71.85
23473;BME280;11909;52.516;13.564;2022-10-03T10:50:54;101508.50;;;14.36;71.62
23473;BME280;11909;52.516;13.564;2022-10-03T10:53:59;101507.06;;;14.43;71.09
23473;BME280;11909;52.516;13.564;2022-10-03T10:57:01;101502.03;;;14.51;70.83
23473;BME280;11909;52.516;13.564;2022-10-03T11:00:05;101502.81;;;14.56;70.61
23473;BME280;11909;52.516;13.564;2022-10-03T11:15:25;101507.09;;;14.38;70.14
23473;BME280;11909;52.516;13.564;2022-10-03T11:18:29;101504.88;;;14.40;70.50
23473;BME280;11909;52.516;13.564;2022-10-03T11:21:39;101506.84;;;14.34;71.06
23473;BME280;11909;52.516;13.564;2022-10-03T11:27:55;101517.84;;;14.40;70.54
23473;BME280;11909;52.516;13.564;2022-10-03T11:31:00;101519.53;;;14.36;71.49
23473;BME280;11909;52.516;13.564;2022-10-03T11:37:07;101510.66;;;14.39;70.75
23473;BME280;11909;52.516;13.564;2022-10-03T11:39:43;101511.28;;;14.30;71.64
23473;BME280;11909;52.516;13.564;2022-10-03T11:42:22;101510.13;;;14.42;71.83
23473;BME280;11909;52.516;13.564;2022-10-03T11:44:55;101524.22;;;14.40;72.35
23473;BME280;11909;52.516;13.564;2022-10-03T11:47:42;101510.13;;;14.37;71.93
23473;BME280;11909;52.516;13.564;2022-10-03T11:50:20;101507.38;;;14.42;72.13
23473;BME280;11909;52.516;13.564;2022-10-03T11:53:04;101514.84;;;14.36;72.03
23473;BME280;11909;52.516;13.564;2022-10-03T11:55:36;101517.28;;;14.43;72.08
23473;BME280;11909;52.516;13.564;2022-10-03T11:58:16;101514.63;;;14.27;74.58
23473;BME280;11909;52.516;13.564;2022-10-03T12:00:50;101498.97;;;14.17;76.78
23473;BME280;11909;52.516;13.564;2022-10-03T12:03:24;101496.50;;;14.11;78.86
23473;BME280;11909;52.516;13.564;2022-10-03T12:05:56;101497.38;;;14.06;79.31
23473;BME280;11909;52.516;13.564;2022-10-03T12:08:39;101489.97;;;14.01;79.73
23473;BME280;11909;52.516;13.564;2022-10-03T12:11:29;101486.91;;;14.03;79.87
23473;BME280;11909;52.516;13.564;2022-10-03T12:14:17;101481.91;;;14.10;80.27
23473;BME280;11909;52.516;13.564;2022-10-03T12:17:11;101486.59;;;14.10;78.22
23473;BME280;11909;52.516;13.564;2022-10-03T12:19:51;101485.44;;;14.21;78.04
23473;BME280;11909;52.516;13.564;2022-10-03T12:22:30;101492.59;;;14.22;75.95
23473;BME280;11909;52.516;13.564;2022-10-03T12:25:01;101482.34;;;14.23;76.26
23473;BME280;11909;52.516;13.564;2022-10-03T12:27:37;101492.81;;;14.26;76.27
23473;BME280;11909;52.516;13.564;2022-10-03T12:30:12;101488.09;;;14.31;77.06
23473;BME280;11909;52.516;13.564;2022-10-03T12:32:50;101513.22;;;14.65;73.06
23473;BME280;11909;52.516;13.564;2022-10-03T12:35:34;101490.03;;;14.66;73.11
23473;BME280;11909;52.516;13.564;2022-10-03T12:38:24;101488.94;;;14.61;74.29
23473;BME280;11909;52.516;13.564;2022-10-03T12:41:06;101487.84;;;14.62;74.78
23473;BME280;11909;52.516;13.564;2022-10-03T12:43:50;101490.81;;;14.71;74.15
23473;BME280;11909;52.516;13.564;2022-10-03T12:46:28;101497.13;;;14.77;73.77
23473;BME280;11909;52.516;13.564;2022-10-03T12:49:01;101493.50;;;14.82;74.04
23473;BME280;11909;52.516;13.564;2022-10-03T12:51:42;101484.63;;;14.85;73.96
23473;BME280;11909;52.516;13.564;2022-10-03T12:54:19;101506.22;;;15.07;70.65
23473;BME280;11909;52.516;13.564;2022-10-03T12:57:05;101499.38;;;15.04;70.54
23473;BME280;11909;52.516;13.564;2022-10-03T12:59:37;101485.63;;;14.94;71.05
23473;BME280;11909;52.516;13.564;2022-10-03T13:02:22;101491.75;;;14.91;71.93
23473;BME280;11909;52.516;13.564;2022-10-03T13:07:42;101495.28;;;14.97;69.94
23473;BME280;11909;52.516;13.564;2022-10-03T13:10:23;101495.94;;;14.88;70.18
23473;BME280;11909;52.516;13.564;2022-10-03T13:13:01;101500.44;;;14.79;71.40
23473;BME280;11909;52.516;13.564;2022-10-03T13:15:43;101505.09;;;14.84;70.29
23473;BME280;11909;52.516;13.564;2022-10-03T13:18:32;101501.22;;;14.85;70.24
23473;BME280;11909;52.516;13.564;2022-10-03T13:21:05;101492.47;;;14.72;71.43
23473;BME280;11909;52.516;13.564;2022-10-03T13:23:43;101493.34;;;14.62;72.06
23473;BME280;11909;52.516;13.564;2022-10-03T13:26:15;101499.25;;;14.56;72.71
23473;BME280;11909;52.516;13.564;2022-10-03T13:29:14;101490.41;;;14.54;72.06
23473;BME280;11909;52.516;13.564;2022-10-03T13:32:07;101492.34;;;14.53;71.87
23473;BME280;11909;52.516;13.564;2022-10-03T13:34:49;101489.84;;;14.57;71.66
23473;BME280;11909;52.516;13.564;2022-10-03T13:37:24;101495.38;;;14.57;71.18
23473;BME280;11909;52.516;13.564;2022-10-03T13:40:01;101490.38;;;14.59;71.65
23473;BME280;11909;52.516;13.564;2022-10-03T13:42:36;101489.31;;;14.49;72.39
23473;BME280;11909;52.516;13.564;2022-10-03T13:45:10;101498.97;;;14.52;71.46
23473;BME280;11909;52.516;13.564;2022-10-03T13:47:43;101512.16;;;14.60;72.01
23473;BME280;11909;52.516;13.564;2022-10-03T13:50:16;101497.72;;;14.74;69.31
23473;BME280;11909;52.516;13.564;2022-10-03T13:52:47;101501.88;;;14.71;69.56
23473;BME280;11909;52.516;13.564;2022-10-03T13:55:27;101492.66;;;14.81;67.64
23473;BME280;11909;52.516;13.564;2022-10-03T13:58:19;101498.31;;;14.71;69.54
23473;BME280;11909;52.516;13.564;2022-10-03T14:01:05;101500.16;;;14.81;69.84
23473;BME280;11909;52.516;13.564;2022-10-03T14:03:42;101501.56;;;14.78;70.25
23473;BME280;11909;52.516;13.564;2022-10-03T14:06:18;101500.44;;;14.79;69.07
23473;BME280;11909;52.516;13.564;2022-10-03T14:09:05;101502.66;;;14.77;70.43
23473;BME280;11909;52.516;13.564;2022-10-03T14:11:45;101507.81;;;14.89;68.02
23473;BME280;11909;52.516;13.564;2022-10-03T14:14:28;101501.47;;;14.88;67.07
23473;BME280;11909;52.516;13.564;2022-10-03T14:17:02;101500.09;;;14.86;68.21
23473;BME280;11909;52.516;13.564;2022-10-03T14:19:38;101500.88;;;14.91;67.35
23473;BME280;11909;52.516;13.564;2022-10-03T14:22:16;101506.53;;;15.05;67.44
23473;BME280;11909;52.516;13.564;2022-10-03T14:25:07;101512.44;;;15.23;67.54
23473;BME280;11909;52.516;13.564;2022-10-03T14:27:48;101506.38;;;15.45;65.84
23473;BME280;11909;52.516;13.564;2022-10-03T14:30:17;101518.56;;;15.69;64.79
23473;BME280;11909;52.516;13.564;2022-10-03T14:32:55;101514.22;;;15.82;63.13
23473;BME280;11909;52.516;13.564;2022-10-03T14:35:35;101520.06;;;15.80;63.04
23473;BME280;11909;52.516;13.564;2022-10-03T14:38:13;101514.72;;;15.65;64.50
23473;BME280;11909;52.516;13.564;2022-10-03T14:40:46;101519.97;;;15.42;65.38
23473;BME280;11909;52.516;13.564;2022-10-03T14:43:25;101517.31;;;15.31;65.30
23473;BME280;11909;52.516;13.564;2022-10-03T14:45:56;101520.19;;;15.21;65.83
23473;BME280;11909;52.516;13.564;2022-10-03T14:48:27;101505.94;;;15.09;66.73
23473;BME280;11909;52.516;13.564;2022-10-03T14:51:04;101509.59;;;15.04;66.83
23473;BME280;11909;52.516;13.564;2022-10-03T14:53:34;101502.06;;;15.10;67.18
23473;BME280;11909;52.516;13.564;2022-10-03T14:56:06;101500.44;;;15.09;67.07
23473;BME280;11909;52.516;13.564;2022-10-03T14:58:43;101500.75;;;15.02;67.75
23473;BME280;11909;52.516;13.564;2022-10-03T15:01:14;101504.97;;;14.99;68.06
23473;BME280;11909;52.516;13.564;2022-10-03T15:03:52;101497.41;;;15.05;68.17
23473;BME280;11909;52.516;13.564;2022-10-03T15:06:47;101488.38;;;14.99;68.30
23473;BME280;11909;52.516;13.564;2022-10-03T15:09:22;101482.88;;;14.94;69.01
23473;BME280;11909;52.516;13.564;2022-10-03T15:11:53;101480.75;;;14.86;69.13
23473;BME280;11909;52.516;13.564;2022-10-03T15:14:26;101485.81;;;14.79;69.58
23473;BME280;11909;52.516;13.564;2022-10-03T15:16:56;101488.56;;;14.79;68.80
23473;BME280;11909;52.516;13.564;2022-10-03T15:19:28;101492.19;;;14.74;69.01
23473;BME280;11909;52.516;13.564;2022-10-03T15:22:03;101481.97;;;14.69;69.57
23473;BME280;11909;52.516;13.564;2022-10-03T15:24:32;101493.03;;;14.69;69.45
23473;BME280;11909;52.516;13.564;2022-10-03T15:27:02;101495.25;;;14.67;69.10
23473;BME280;11909;52.516;13.564;2022-10-03T15:29:32;101486.19;;;14.61;69.09
23473;BME280;11909;52.516;13.564;2022-10-03T15:31:59;101491.44;;;14.63;69.21
23473;BME280;11909;52.516;13.564;2022-10-03T15:34:31;101494.78;;;14.60;69.07
23473;BME280;11909;52.516;13.564;2022-10-03T15:36:59;101491.81;;;14.51;69.46
23473;BME280;11909;52.516;13.564;2022-10-03T15:39:33;101497.59;;;14.55;69.47
23473;BME280;11909;52.516;13.564;2022-10-03T15:42:03;101492.63;;;14.52;69.39
23473;BME280;11909;52.516;13.564;2022-10-03T15:44:48;101492.41;;;14.48;70.27
23473;BME280;11909;52.516;13.564;2022-10-03T15:47:19;101499.03;;;14.47;70.41
23473;BME280;11909;52.516;13.564;2022-10-03T15:49:50;101500.69;;;14.48;70.07
23473;BME280;11909;52.516;13.564;2022-10-03T15:52:20;101502.06;;;14.45;70.50